ID Time Temp Humidity Light PM2.5 PM10 Voltage Firmware Position Fcnt Gateways Distance RSSI LSNR Radiosettings
51 2019-08-22 22:36:47 15.875°C 83.375% 3.38V v1 52.1992 / 5.41229 4172 tonzttn 0.02km -81 9.5 868.5Mhz, SF9BW125, 4/5CR
Meetjestad #4 (De Koperhorst) 3.683km -117 -4.75 868.5Mhz, SF9BW125, 4/5CR
51 2019-08-22 22:19:48 16.25°C 81.1875% 3.38V v1 52.1992 / 5.41229 4171 tonzttn 0.02km -85 12 867.9Mhz, SF9BW125, 4/5CR
Meetjestad #4 (De Koperhorst) 3.683km -120 0.25 867.9Mhz, SF9BW125, 4/5CR
51 2019-08-22 22:02:48 16.6875°C 83.0625% 3.38V v1 52.1992 / 5.41229 4170 tonzttn 0.02km -83 10.75 868.3Mhz, SF9BW125, 4/5CR
Meetjestad #4 (De Koperhorst) 3.683km -115 -1.5 868.3Mhz, SF9BW125, 4/5CR
51 2019-08-22 21:45:48 17.125°C 82.8125% 3.38V v1 52.1992 / 5.41229 4169 tonzttn 0.02km -79 12.75 867.7Mhz, SF9BW125, 4/5CR
51 2019-08-22 21:28:48 17.6875°C 83.1875% 3.38V v1 52.1992 / 5.41229 4168 tonzttn 0.02km -89 13.25 868.1Mhz, SF9BW125, 4/5CR
Meetjestad #4 (De Koperhorst) 3.683km -118 0.75 868.1Mhz, SF9BW125, 4/5CR
51 2019-08-22 21:11:48 18.4375°C 73.875% 3.38V v1 52.1992 / 5.41229 4167 tonzttn 0.02km -79 9.25 867.5Mhz, SF9BW125, 4/5CR
Meetjestad #4 (De Koperhorst) 3.683km -114 -5.75 867.5Mhz, SF9BW125, 4/5CR
51 2019-08-22 20:54:48 19°C 74.125% 3.38V v1 52.1992 / 5.41229 4166 tonzttn 0.02km -83 8.75 868.5Mhz, SF9BW125, 4/5CR
51 2019-08-22 20:37:47 19.5625°C 74.875% 3.38V v1 52.1992 / 5.41229 4165 tonzttn 0.02km -77 13 867.3Mhz, SF9BW125, 4/5CR
Meetjestad #4 (De Koperhorst) 3.683km -113 1.25 867.3Mhz, SF9BW125, 4/5CR
51 2019-08-22 20:20:46 20.25°C 73.8125% 3.38V v1 52.1992 / 5.41229 4164 tonzttn 0.02km -93 12 868.3Mhz, SF9BW125, 4/5CR
Meetjestad #4 (De Koperhorst) 3.683km -119 -10.5 868.3Mhz, SF9BW125, 4/5CR
51 2019-08-22 20:03:45 20.75°C 70.0625% 3.38V v1 52.1992 / 5.41229 4163 tonzttn 0.02km -79 13.25 867.1Mhz, SF9BW125, 4/5CR
Meetjestad #4 (De Koperhorst) 3.683km -118 -3.5 867.1Mhz, SF9BW125, 4/5CR
51 2019-08-22 19:46:44 21.375°C 66.4375% 3.38V v1 52.1992 / 5.41229 4162 tonzttn 0.02km -89 13.75 868.1Mhz, SF9BW125, 4/5CR
Meetjestad #4 (De Koperhorst) 3.683km -117 -1.75 868.1Mhz, SF9BW125, 4/5CR
Meetjestad #6 (La Balise) 3.224km -120 -13.75 868.1Mhz, SF9BW125, 4/5CR
51 2019-08-22 19:29:42 21.8125°C 65.0625% 3.38V v1 52.1992 / 5.41229 4161 tonzttn 0.02km -84 11.75 867.9Mhz, SF9BW125, 4/5CR
Meetjestad #4 (De Koperhorst) 3.683km -120 -3.75 867.9Mhz, SF9BW125, 4/5CR
51 2019-08-22 19:12:41 22.3125°C 64.875% 3.38V v1 52.1992 / 5.41229 4160 tonzttn 0.02km -77 8.5 868.5Mhz, SF9BW125, 4/5CR
51 2019-08-22 18:55:39 22.6875°C 63.5% 3.38V v1 52.1992 / 5.41229 4159 tonzttn 0.02km -83 13.5 867.7Mhz, SF9BW125, 4/5CR
Meetjestad #4 (De Koperhorst) 3.683km -120 -8.75 867.7Mhz, SF9BW125, 4/5CR
eui-1dee1538af05a5a8 - -120 -13.2 867.7Mhz, SF9BW125, 4/5CR
51 2019-08-22 18:38:38 22.9375°C 62.25% 3.38V v1 52.1992 / 5.41229 4158 tonzttn 0.02km -81 12 868.3Mhz, SF9BW125, 4/5CR
Meetjestad #4 (De Koperhorst) 3.683km -117 -8.25 868.3Mhz, SF9BW125, 4/5CR
51 2019-08-22 18:21:36 23.3125°C 60.8125% 3.38V v1 52.1992 / 5.41229 4157 tonzttn 0.02km -79 9.75 867.5Mhz, SF9BW125, 4/5CR
Meetjestad #4 (De Koperhorst) 3.683km -115 -5.75 867.5Mhz, SF9BW125, 4/5CR
51 2019-08-22 18:04:34 23.4375°C 60.125% 3.38V v1 52.1992 / 5.41229 4156 tonzttn 0.02km -83 12.5 868.1Mhz, SF9BW125, 4/5CR
Meetjestad #4 (De Koperhorst) 3.683km -121 -9.5 868.1Mhz, SF9BW125, 4/5CR
eui-1dee1538af05a5a8 - -120 -13.5 868.1Mhz, SF9BW125, 4/5CR
51 2019-08-22 17:47:32 23.625°C 60.9375% 3.38V v1 52.1992 / 5.41229 4155 tonzttn 0.02km -79 12.75 867.3Mhz, SF9BW125, 4/5CR
Meetjestad #4 (De Koperhorst) 3.683km -117 -0.25 867.3Mhz, SF9BW125, 4/5CR
eui-1dee1538af05a5a8 - -120 -12 867.3Mhz, SF9BW125, 4/5CR
Meetjestad #6 (La Balise) 3.224km -119 -12.75 867.3Mhz, SF9BW125, 4/5CR
51 2019-08-22 17:30:30 23.6875°C 60.125% 3.38V v1 52.1992 / 5.41229 4154 tonzttn 0.02km -78 9 868.5Mhz, SF9BW125, 4/5CR
Meetjestad #4 (De Koperhorst) 3.683km -114 -9.75 868.5Mhz, SF9BW125, 4/5CR
51 2019-08-22 17:13:28 23.6875°C 58.8125% 3.38V v1 52.1992 / 5.41229 4153 tonzttn 0.02km -83 13 867.1Mhz, SF9BW125, 4/5CR
Meetjestad #4 (De Koperhorst) 3.683km -120 -6.75 867.1Mhz, SF9BW125, 4/5CR
Meetjestad #6 (La Balise) 3.224km -121 -11.25 867.1Mhz, SF9BW125, 4/5CR
51 2019-08-22 16:56:26 23.625°C 61.375% 3.38V v1 52.1992 / 5.41229 4152 tonzttn 0.02km -73 11.5 868.3Mhz, SF9BW125, 4/5CR
51 2019-08-22 16:39:24 23.75°C 60.0625% 3.38V v1 52.1992 / 5.41229 4151 tonzttn 0.02km -91 13.75 867.9Mhz, SF9BW125, 4/5CR
Meetjestad #4 (De Koperhorst) 3.683km -120 -4 867.9Mhz, SF9BW125, 4/5CR
51 2019-08-22 16:22:22 23.8125°C 61.25% 3.38V v1 52.1992 / 5.41229 4150 tonzttn 0.02km -83 12.75 868.1Mhz, SF9BW125, 4/5CR
Meetjestad #4 (De Koperhorst) 3.683km -117 -8.5 868.1Mhz, SF9BW125, 4/5CR
51 2019-08-22 16:05:20 24.0625°C 59.0625% 3.38V v1 52.1992 / 5.41229 4149 tonzttn 0.02km -82 11.5 867.7Mhz, SF9BW125, 4/5CR
Meetjestad #4 (De Koperhorst) 3.683km -117 -2.75 867.7Mhz, SF9BW125, 4/5CR
51 2019-08-22 15:48:18 24°C 59.3125% 3.38V v1 52.1992 / 5.41229 4148 tonzttn 0.02km -72 8 868.5Mhz, SF9BW125, 4/5CR
51 2019-08-22 15:31:15 24°C 59.125% 3.38V v1 52.1992 / 5.41229 4147 tonzttn 0.02km -94 9 867.5Mhz, SF9BW125, 4/5CR
Meetjestad #4 (De Koperhorst) 3.683km -117 -9.25 867.5Mhz, SF9BW125, 4/5CR
51 2019-08-22 15:14:13 24.125°C 59.3125% 3.38V v1 52.1992 / 5.41229 4146 tonzttn 0.02km -70 8.25 868.3Mhz, SF9BW125, 4/5CR
51 2019-08-22 14:57:11 24.0625°C 59.0625% 3.38V v1 52.1992 / 5.41229 4145 tonzttn 0.02km -90 11.75 867.3Mhz, SF9BW125, 4/5CR
Meetjestad #4 (De Koperhorst) 3.683km -119 -5.5 867.3Mhz, SF9BW125, 4/5CR
51 2019-08-22 14:40:09 24.1875°C 57.9375% 3.38V v1 52.1992 / 5.41229 4144 tonzttn 0.02km -81 12.25 868.1Mhz, SF9BW125, 4/5CR
Meetjestad #4 (De Koperhorst) 3.683km -118 -5.25 868.1Mhz, SF9BW125, 4/5CR
51 2019-08-22 14:23:07 24.3125°C 57.1875% 3.38V v1 52.1992 / 5.41229 4143 tonzttn 0.02km -83 13 867.1Mhz, SF9BW125, 4/5CR
Meetjestad #4 (De Koperhorst) 3.683km -120 -8.25 867.1Mhz, SF9BW125, 4/5CR
eui-1dee1538af05a5a8 - -120 -12.8 867.1Mhz, SF9BW125, 4/5CR
51 2019-08-22 14:06:07 24.125°C 58.5625% 3.38V v1 52.1992 / 5.41229 4142 tonzttn 0.02km -73 9.25 868.5Mhz, SF9BW125, 4/5CR
Meetjestad #4 (De Koperhorst) 3.683km -115 -9.75 868.5Mhz, SF9BW125, 4/5CR
51 2019-08-22 13:49:02 24.125°C 56.9375% 3.38V v1 52.1992 / 5.41229 4141 tonzttn 0.02km -85 13.75 867.9Mhz, SF9BW125, 4/5CR
Meetjestad #4 (De Koperhorst) 3.683km -119 -4 867.9Mhz, SF9BW125, 4/5CR
51 2019-08-22 13:32:00 24°C 55.4375% 3.38V v1 52.1992 / 5.41229 4140 tonzttn 0.02km -77 10.25 868.3Mhz, SF9BW125, 4/5CR
Meetjestad #4 (De Koperhorst) 3.683km -114 -12.75 868.3Mhz, SF9BW125, 4/5CR
51 2019-08-22 13:14:58 24.0625°C 57.5625% 3.38V v1 52.1992 / 5.41229 4139 tonzttn 0.02km -84 11.75 867.7Mhz, SF9BW125, 4/5CR
Meetjestad #4 (De Koperhorst) 3.683km -117 1.5 867.7Mhz, SF9BW125, 4/5CR
51 2019-08-22 12:57:56 23.8125°C 58.0625% 3.38V v1 52.1992 / 5.41229 4138 tonzttn 0.02km -85 14.25 868.1Mhz, SF9BW125, 4/5CR
Meetjestad #4 (De Koperhorst) 3.683km -120 -6.5 868.1Mhz, SF9BW125, 4/5CR
51 2019-08-22 12:40:54 23.75°C 58% 3.38V v1 52.1992 / 5.41229 4137 tonzttn 0.02km -93 8.75 867.5Mhz, SF9BW125, 4/5CR
51 2019-08-22 12:23:52 24°C 56.3125% 3.38V v1 52.1992 / 5.41229 4136 tonzttn 0.02km -76 8.5 868.5Mhz, SF9BW125, 4/5CR
51 2019-08-22 12:06:50 23.875°C 58.25% 3.38V v1 52.1992 / 5.41229 4135 tonzttn 0.02km -81 12.25 867.3Mhz, SF9BW125, 4/5CR
Meetjestad #4 (De Koperhorst) 3.683km -111 -10.25 867.3Mhz, SF9BW125, 4/5CR
51 2019-08-22 11:49:48 23.4375°C 58.8125% 3.38V v1 52.1992 / 5.41229 4134 tonzttn 0.02km -76 9.75 868.3Mhz, SF9BW125, 4/5CR
51 2019-08-22 11:32:46 23.25°C 58.8125% 3.38V v1 52.1992 / 5.41229 4133 tonzttn 0.02km -85 12 867.1Mhz, SF9BW125, 4/5CR
51 2019-08-22 11:15:44 22.875°C 59.875% 3.38V v1 52.1992 / 5.41229 4132 tonzttn 0.02km -81 13.5 868.1Mhz, SF9BW125, 4/5CR
Meetjestad #4 (De Koperhorst) 3.683km -120 -2 868.1Mhz, SF9BW125, 4/5CR
Meetjestad #6 (La Balise) 3.224km -121 -13.75 868.1Mhz, SF9BW125, 4/5CR
51 2019-08-22 10:58:43 22.5°C 59.6875% 3.38V v1 52.1992 / 5.41229 4131 tonzttn 0.02km -84 11 867.9Mhz, SF9BW125, 4/5CR
Meetjestad #4 (De Koperhorst) 3.683km -118 -2.25 867.9Mhz, SF9BW125, 4/5CR
51 2019-08-22 10:41:42 22.0625°C 63.25% 3.38V v1 52.1992 / 5.41229 4130 tonzttn 0.02km -81 8.75 868.5Mhz, SF9BW125, 4/5CR
51 2019-08-22 10:24:40 21.5°C 64.625% 3.38V v1 52.1992 / 5.41229 4129 tonzttn 0.02km -79 12 868.3Mhz, SF9BW125, 4/5CR
51 2019-08-22 10:09:13 20.75°C 65.375% 3.38V v1 52.1992 / 5.41229 4128 tonzttn 0.02km -78 9.25 867.7Mhz, SF12BW125, 4/5CR
Meetjestad #4 (De Koperhorst) 3.683km -119 -14.25 867.7Mhz, SF12BW125, 4/5CR
Meetjestad #1 (De WAR) 4.714km -120 -16.75 867.7Mhz, SF12BW125, 4/5CR
51 2019-08-22 09:50:50 19.5°C 66.6875% 3.38V v1 52.1991 / 5.41208 4127 tonzttn 0.002km -81 13 868.1Mhz, SF9BW125, 4/5CR
Meetjestad #4 (De Koperhorst) 3.667km -120 -3.5 868.1Mhz, SF9BW125, 4/5CR
Meetjestad #6 (La Balise) 3.213km -121 -13.25 868.1Mhz, SF9BW125, 4/5CR
51 2019-08-22 09:33:49 18.5°C 69.5% 3.38V v1 52.1991 / 5.41208 4126 tonzttn 0.002km -89 9.5 867.5Mhz, SF9BW125, 4/5CR
51 2019-08-22 09:16:50 17.375°C 73.0625% 3.38V v1 52.1991 / 5.41208 4125 tonzttn 0.002km -73 8.75 868.5Mhz, SF9BW125, 4/5CR
Meetjestad #4 (De Koperhorst) 3.667km -117 -5.5 868.5Mhz, SF9BW125, 4/5CR
Meetjestad #6 (La Balise) 3.213km -118 -14.25 868.5Mhz, SF9BW125, 4/5CR
51 2019-08-22 08:59:50 15.625°C 78.0625% 3.38V v1 52.1991 / 5.41208 4124 Meetjestad #4 (De Koperhorst) 3.667km -120 -7.5 867.3Mhz, SF9BW125, 4/5CR
51 2019-08-22 08:42:51 13.625°C 85.5% 3.38V v1 52.1991 / 5.41208 4123 tonzttn 0.002km -76 11.75 868.3Mhz, SF9BW125, 4/5CR
51 2019-08-22 08:25:53 12.875°C 87.25% 3.38V v1 52.1991 / 5.41208 4122 tonzttn 0.002km -77 13.75 867.1Mhz, SF9BW125, 4/5CR
eui-1dee1538af05a5a8 - -120 -11.2 867.1Mhz, SF9BW125, 4/5CR
51 2019-08-22 08:08:54 12.125°C 89.4375% 3.38V v1 52.1991 / 5.41208 4121 tonzttn 0.002km -91 12.75 868.1Mhz, SF9BW125, 4/5CR
Meetjestad #4 (De Koperhorst) 3.667km -119 -3 868.1Mhz, SF9BW125, 4/5CR
51 2019-08-22 07:51:56 11.375°C 91.3125% 3.38V v1 52.1991 / 5.41208 4120 tonzttn 0.002km -85 12 867.9Mhz, SF9BW125, 4/5CR
Meetjestad #4 (De Koperhorst) 3.667km -120 -3.75 867.9Mhz, SF9BW125, 4/5CR
51 2019-08-22 07:34:58 11.0625°C 90.9375% 3.38V v1 52.1991 / 5.41208 4119 tonzttn 0.002km -85 9.25 868.5Mhz, SF9BW125, 4/5CR
Meetjestad #4 (De Koperhorst) 3.667km -113 -9.5 868.5Mhz, SF9BW125, 4/5CR
Meetjestad #6 (La Balise) 3.213km -117 -13.5 868.5Mhz, SF9BW125, 4/5CR
51 2019-08-22 07:18:00 10.9375°C 90.875% 3.38V v1 52.1991 / 5.41208 4118 tonzttn 0.002km -81 13.25 867.7Mhz, SF9BW125, 4/5CR
Meetjestad #4 (De Koperhorst) 3.667km -118 -7.25 867.7Mhz, SF9BW125, 4/5CR
51 2019-08-22 07:01:02 10.875°C 90.8125% 3.38V v1 52.1991 / 5.41208 4117 tonzttn 0.002km -95 12.75 868.3Mhz, SF9BW125, 4/5CR
51 2019-08-22 06:44:04 10.8125°C 91.125% 3.38V v1 52.1991 / 5.41208 4116 tonzttn 0.002km -77 9 867.5Mhz, SF9BW125, 4/5CR
Meetjestad #4 (De Koperhorst) 3.667km -120 -9 867.5Mhz, SF9BW125, 4/5CR
eui-1dee1538af05a5a8 - -117 -12 867.5Mhz, SF9BW125, 4/5CR
51 2019-08-22 06:27:06 10.8125°C 91.1875% 3.38V v1 52.1991 / 5.41208 4115 tonzttn 0.002km -97 9.75 868.1Mhz, SF9BW125, 4/5CR
Meetjestad #4 (De Koperhorst) 3.667km -120 -5.75 868.1Mhz, SF9BW125, 4/5CR
51 2019-08-22 06:10:08 10.875°C 91.0625% 3.38V v1 52.1991 / 5.41208 4114 tonzttn 0.002km -72 11.5 867.3Mhz, SF9BW125, 4/5CR
Meetjestad #4 (De Koperhorst) 3.667km -120 -10.5 867.3Mhz, SF9BW125, 4/5CR
51 2019-08-22 05:53:10 11°C 91.5% 3.38V v1 52.1991 / 5.41208 4113 tonzttn 0.002km -83 9.5 868.5Mhz, SF9BW125, 4/5CR
Meetjestad #4 (De Koperhorst) 3.667km -117 -12.25 868.5Mhz, SF9BW125, 4/5CR
51 2019-08-22 05:36:12 11.125°C 91.5% 3.38V v1 52.1991 / 5.41208 4112 tonzttn 0.002km -72 12 867.1Mhz, SF9BW125, 4/5CR
Meetjestad #4 (De Koperhorst) 3.667km -120 -5.75 867.1Mhz, SF9BW125, 4/5CR
eui-1dee1538af05a5a8 - -120 -11.5 867.1Mhz, SF9BW125, 4/5CR
51 2019-08-22 05:19:14 11.1875°C 91.4375% 3.38V v1 52.1991 / 5.41208 4111 tonzttn 0.002km -99 11.25 868.3Mhz, SF9BW125, 4/5CR
51 2019-08-22 05:02:16 11.3125°C 91.5% 3.38V v1 52.1991 / 5.41208 4110 tonzttn 0.002km -85 12.5 867.9Mhz, SF9BW125, 4/5CR
Meetjestad #4 (De Koperhorst) 3.667km -120 -6 867.9Mhz, SF9BW125, 4/5CR
51 2019-08-22 04:45:18 11.4375°C 91.375% 3.38V v1 52.1991 / 5.41208 4109 tonzttn 0.002km -95 12.25 868.1Mhz, SF9BW125, 4/5CR
Meetjestad #4 (De Koperhorst) 3.667km -120 -5 868.1Mhz, SF9BW125, 4/5CR
51 2019-08-22 04:28:19 11.5°C 91.125% 3.38V v1 52.1991 / 5.41208 4108 tonzttn 0.002km -79 12.5 867.7Mhz, SF9BW125, 4/5CR
Meetjestad #4 (De Koperhorst) 3.667km -118 -5.75 867.7Mhz, SF9BW125, 4/5CR
eui-1dee1538af05a5a8 - -119 -13.8 867.7Mhz, SF9BW125, 4/5CR
51 2019-08-22 04:11:21 11.625°C 90.9375% 3.38V v1 52.1991 / 5.41208 4107 tonzttn 0.002km -85 9.5 868.5Mhz, SF9BW125, 4/5CR
Meetjestad #6 (La Balise) 3.213km -120 -11.25 868.5Mhz, SF9BW125, 4/5CR
51 2019-08-22 03:54:23 11.875°C 90.9375% 3.38V v1 52.1991 / 5.41208 4106 tonzttn 0.002km -77 9 867.5Mhz, SF9BW125, 4/5CR
eui-1dee1538af05a5a8 - -114 -12.2 867.5Mhz, SF9BW125, 4/5CR
Meetjestad #4 (De Koperhorst) 3.667km -117 -12.75 867.5Mhz, SF9BW125, 4/5CR
51 2019-08-22 03:37:25 12°C 91.0625% 3.38V v1 52.1991 / 5.41208 4105 tonzttn 0.002km -95 13 868.3Mhz, SF9BW125, 4/5CR
Meetjestad #6 (La Balise) 3.213km -117 -13.25 868.3Mhz, SF9BW125, 4/5CR
51 2019-08-22 03:20:26 12.125°C 90.75% 3.38V v1 52.1991 / 5.41208 4104 tonzttn 0.002km -72 12.5 867.3Mhz, SF9BW125, 4/5CR
eui-1dee1538af05a5a8 - -119 -11 867.3Mhz, SF9BW125, 4/5CR
Meetjestad #4 (De Koperhorst) 3.667km -119 -11.5 867.3Mhz, SF9BW125, 4/5CR
51 2019-08-22 03:03:28 12.25°C 90% 3.38V v1 52.1991 / 5.41208 4103 tonzttn 0.002km -93 12.25 868.1Mhz, SF9BW125, 4/5CR
Meetjestad #4 (De Koperhorst) 3.667km -120 -5.25 868.1Mhz, SF9BW125, 4/5CR
51 2019-08-22 02:29:31 12.4375°C 89.75% 3.38V v1 52.1991 / 5.41208 4101 tonzttn 0.002km -89 9.25 868.5Mhz, SF9BW125, 4/5CR
Meetjestad #6 (La Balise) 3.213km -119 -13 868.5Mhz, SF9BW125, 4/5CR
51 2019-08-22 02:12:33 12.625°C 90.3125% 3.38V v1 52.1991 / 5.41208 4100 tonzttn 0.002km -83 11.5 867.9Mhz, SF9BW125, 4/5CR
Meetjestad #4 (De Koperhorst) 3.667km -120 -2.5 867.9Mhz, SF9BW125, 4/5CR
Meetjestad #6 (La Balise) 3.213km -120 -14.25 867.9Mhz, SF9BW125, 4/5CR
51 2019-08-22 01:55:34 12.8125°C 90.125% 3.38V v1 52.1991 / 5.41208 4099 tonzttn 0.002km -95 11.75 868.3Mhz, SF9BW125, 4/5CR
Meetjestad #4 (De Koperhorst) 3.667km -114 -11 868.3Mhz, SF9BW125, 4/5CR
51 2019-08-22 01:38:36 12.9375°C 90.0625% 3.38V v1 52.1991 / 5.41208 4098 tonzttn 0.002km -81 13.5 867.7Mhz, SF9BW125, 4/5CR
Meetjestad #4 (De Koperhorst) 3.667km -116 -7.5 867.7Mhz, SF9BW125, 4/5CR
51 2019-08-22 01:21:37 13.0625°C 89.8125% 3.38V v1 52.1991 / 5.41208 4097 tonzttn 0.002km -97 11.75 868.1Mhz, SF9BW125, 4/5CR
Meetjestad #4 (De Koperhorst) 3.667km -119 -5.75 868.1Mhz, SF9BW125, 4/5CR
51 2019-08-22 01:04:38 13.25°C 89.75% 3.38V v1 52.1991 / 5.41208 4096 tonzttn 0.002km -77 10.25 867.5Mhz, SF9BW125, 4/5CR
51 2019-08-22 00:47:40 13.5°C 89.9375% 3.38V v1 52.1991 / 5.41208 4095 tonzttn 0.002km -83 8.75 868.5Mhz, SF9BW125, 4/5CR
Meetjestad #6 (La Balise) 3.213km -120 -11.75 868.5Mhz, SF9BW125, 4/5CR
51 2019-08-21 23:56:43 14.0625°C 88.75% 3.38V v1 52.1991 / 5.41208 4092 tonzttn 0.002km -79 13.25 867.1Mhz, SF9BW125, 4/5CR
Meetjestad #4 (De Koperhorst) 3.667km -119 -10 867.1Mhz, SF9BW125, 4/5CR
51 2019-08-21 23:39:44 14.375°C 86% 3.38V v1 52.1991 / 5.41208 4091 tonzttn 0.002km -87 12.75 868.1Mhz, SF9BW125, 4/5CR
Meetjestad #4 (De Koperhorst) 3.667km -119 -4.5 868.1Mhz, SF9BW125, 4/5CR
51 2019-08-21 23:22:45 14.6875°C 84.125% 3.38V v1 52.1991 / 5.41208 4090 tonzttn 0.002km -90 11 867.9Mhz, SF9BW125, 4/5CR
Meetjestad #4 (De Koperhorst) 3.667km -121 -9.75 867.9Mhz, SF9BW125, 4/5CR
Meetjestad #6 (La Balise) 3.213km -120 -13.75 867.9Mhz, SF9BW125, 4/5CR
51 2019-08-21 23:05:45 14.9375°C 81.375% 3.38V v1 52.1991 / 5.41208 4089 tonzttn 0.002km -74 8.5 868.5Mhz, SF9BW125, 4/5CR
Meetjestad #4 (De Koperhorst) 3.667km -114 -11 868.5Mhz, SF9BW125, 4/5CR
51 2019-08-21 22:48:46 15.3125°C 77.75% 3.38V v1 52.1991 / 5.41208 4088 tonzttn 0.002km -84 11.5 867.7Mhz, SF9BW125, 4/5CR
Meetjestad #4 (De Koperhorst) 3.667km -119 -7.75 867.7Mhz, SF9BW125, 4/5CR
51 2019-08-21 22:31:47 15.5625°C 77.8125% 3.38V v1 52.1991 / 5.41208 4087 tonzttn 0.002km -85 12.5 868.3Mhz, SF9BW125, 4/5CR
Meetjestad #4 (De Koperhorst) 3.667km -112 -2.75 868.3Mhz, SF9BW125, 4/5CR
51 2019-08-21 22:14:47 15.875°C 79.375% 3.38V v1 52.1991 / 5.41208 4086 tonzttn 0.002km -81 8.25 867.5Mhz, SF9BW125, 4/5CR
51 2019-08-21 21:57:47 16.1875°C 80.1875% 3.38V v1 52.1991 / 5.41208 4085 Meetjestad #4 (De Koperhorst) 3.667km -119 -3 868.1Mhz, SF9BW125, 4/5CR
Meetjestad #6 (La Balise) 3.213km -120 -14.25 868.1Mhz, SF9BW125, 4/5CR
51 2019-08-21 21:40:48 16.6875°C 83.375% 3.38V v1 52.1991 / 5.41208 4084 tonzttn 0.002km -77 12.75 867.3Mhz, SF9BW125, 4/5CR
Meetjestad #4 (De Koperhorst) 3.667km -118 -10.5 867.3Mhz, SF9BW125, 4/5CR
eui-1dee1538af05a5a8 - -119 -11.8 867.3Mhz, SF9BW125, 4/5CR
51 2019-08-21 21:23:48 17.1875°C 82.25% 3.38V v1 52.1991 / 5.41208 4083 tonzttn 0.002km -75 9.25 868.5Mhz, SF9BW125, 4/5CR
Meetjestad #6 (La Balise) 3.213km -120 -11.75 868.5Mhz, SF9BW125, 4/5CR
51 2019-08-21 21:06:48 17.6875°C 79.8125% 3.38V v1 52.1991 / 5.41208 4082 tonzttn 0.002km -75 12.5 867.1Mhz, SF9BW125, 4/5CR
Meetjestad #4 (De Koperhorst) 3.667km -119 -12.25 867.1Mhz, SF9BW125, 4/5CR
eui-1dee1538af05a5a8 - -119 -13.2 867.1Mhz, SF9BW125, 4/5CR
51 2019-08-21 20:49:47 18.3125°C 77% 3.38V v1 52.1991 / 5.41208 4081 tonzttn 0.002km -81 12 868.3Mhz, SF9BW125, 4/5CR
Meetjestad #6 (La Balise) 3.213km -120 -13.25 868.3Mhz, SF9BW125, 4/5CR
51 2019-08-21 20:32:54 18.8125°C 72.5% 3.38V v1 52.1991 / 5.41208 4080 tonzttn 0.002km -81 14 867.9Mhz, SF9BW125, 4/5CR
Meetjestad #4 (De Koperhorst) 3.667km -119 -6.75 867.9Mhz, SF9BW125, 4/5CR
51 2019-08-21 20:15:47 19.375°C 68.0625% 3.38V v1 52.1991 / 5.41208 4079 tonzttn 0.002km -81 12.75 867.7Mhz, SF9BW125, 4/5CR
Meetjestad #4 (De Koperhorst) 3.667km -120 -10.75 867.7Mhz, SF9BW125, 4/5CR
51 2019-08-21 19:58:46 19.8125°C 67.375% 3.38V v1 52.1991 / 5.41208 4078 tonzttn 0.002km -78 12 868.3Mhz, SF9BW125, 4/5CR
Meetjestad #4 (De Koperhorst) 3.667km -119 -5.25 868.3Mhz, SF9BW125, 4/5CR
Meetjestad #6 (La Balise) 3.213km -119 -13.25 868.3Mhz, SF9BW125, 4/5CR
51 2019-08-21 19:24:46 20.75°C 66.125% 3.38V v1 52.1991 / 5.41208 4076 tonzttn 0.002km -79 11.5 868.1Mhz, SF9BW125, 4/5CR
51 2019-08-21 19:07:43 21.0625°C 61.1875% 3.38V v1 52.1991 / 5.41208 4075 tonzttn 0.002km -78 12.5 867.3Mhz, SF9BW125, 4/5CR
eui-1dee1538af05a5a8 - -118 -12.2 867.3Mhz, SF9BW125, 4/5CR
51 2019-08-21 18:33:41 21.125°C 60.1875% 3.38V v1 52.1991 / 5.41208 4073 tonzttn 0.002km -81 11.75 867.1Mhz, SF9BW125, 4/5CR
eui-1dee1538af05a5a8 - -121 -9.2 867.1Mhz, SF9BW125, 4/5CR
51 2019-08-21 17:59:38 21.25°C 62.9375% 3.38V v1 52.1991 / 5.41208 4071 tonzttn 0.002km -93 12 867.9Mhz, SF9BW125, 4/5CR
Meetjestad #4 (De Koperhorst) 3.667km -119 -2.75 867.9Mhz, SF9BW125, 4/5CR
51 2019-08-21 17:42:38 21.3125°C 59.9375% 3.38V v1 52.1991 / 5.41208 4070 tonzttn 0.002km -91 12.25 868.1Mhz, SF9BW125, 4/5CR
Meetjestad #4 (De Koperhorst) 3.667km -119 -5.25 868.1Mhz, SF9BW125, 4/5CR
51 2019-08-21 17:25:36 21.5625°C 59% 3.38V v1 52.1991 / 5.41208 4069 tonzttn 0.002km -85 12.25 867.7Mhz, SF9BW125, 4/5CR
Meetjestad #4 (De Koperhorst) 3.667km -117 -2.75 867.7Mhz, SF9BW125, 4/5CR
51 2019-08-21 17:08:34 21.5625°C 60.4375% 3.38V v1 52.1991 / 5.41208 4068 tonzttn 0.002km -83 7.5 868.5Mhz, SF9BW125, 4/5CR
51 2019-08-21 16:51:40 21.4375°C 63% 3.38V v1 52.1991 / 5.41208 4067 Meetjestad #6 (La Balise) 3.213km -120 -12.75 868.3Mhz, SF9BW125, 4/5CR
51 2019-08-21 16:34:33 21.375°C 61.625% 3.38V v1 52.1991 / 5.41208 4066 tonzttn 0.002km -87 11.5 868.1Mhz, SF9BW125, 4/5CR
Meetjestad #4 (De Koperhorst) 3.667km -120 -4.75 868.1Mhz, SF9BW125, 4/5CR
51 2019-08-21 16:17:31 21.3125°C 57.875% 3.38V v1 52.1991 / 5.41208 4065 tonzttn 0.002km -77 13.5 867.1Mhz, SF9BW125, 4/5CR
Meetjestad #4 (De Koperhorst) 3.667km -116 -2.25 867.1Mhz, SF9BW125, 4/5CR
51 2019-08-21 15:43:29 21.5°C 60.9375% 3.38V v1 52.1991 / 5.41208 4063 tonzttn 0.002km -83 12.5 867.9Mhz, SF9BW125, 4/5CR
Meetjestad #4 (De Koperhorst) 3.667km -120 -1.75 867.9Mhz, SF9BW125, 4/5CR
51 2019-08-21 15:26:28 21.6875°C 56.4375% 3.38V v1 52.1991 / 5.41208 4062 tonzttn 0.002km -81 11.25 868.3Mhz, SF9BW125, 4/5CR
51 2019-08-21 15:09:26 21.875°C 56.625% 3.38V v1 52.1991 / 5.41208 4061 tonzttn 0.002km -79 12.5 867.7Mhz, SF9BW125, 4/5CR
Meetjestad #4 (De Koperhorst) 3.667km -116 -3 867.7Mhz, SF9BW125, 4/5CR
eui-1dee1538af05a5a8 - -119 -12.8 867.7Mhz, SF9BW125, 4/5CR
51 2019-08-21 14:52:25 21.375°C 57.9375% 3.38V v1 52.1991 / 5.41208 4060 tonzttn 0.002km -84 11.25 868.1Mhz, SF9BW125, 4/5CR
Meetjestad #4 (De Koperhorst) 3.667km -121 -6.25 868.1Mhz, SF9BW125, 4/5CR
51 2019-08-21 14:35:25 21.125°C 56.25% 3.38V v1 52.1991 / 5.41208 4059 tonzttn 0.002km -81 9 867.5Mhz, SF9BW125, 4/5CR
51 2019-08-21 14:18:22 21.125°C 57.125% 3.38V v1 52.1991 / 5.41208 4058 tonzttn 0.002km -84 8.75 868.5Mhz, SF9BW125, 4/5CR
Meetjestad #4 (De Koperhorst) 3.667km -115 -6.75 868.5Mhz, SF9BW125, 4/5CR
51 2019-08-21 14:01:21 21.4375°C 56.25% 3.38V v1 52.1991 / 5.41208 4057 tonzttn 0.002km -79 13 867.3Mhz, SF9BW125, 4/5CR
Meetjestad #4 (De Koperhorst) 3.667km -119 -2.75 867.3Mhz, SF9BW125, 4/5CR
51 2019-08-21 13:44:20 21.1875°C 56.375% 3.38V v1 52.1991 / 5.41208 4056 tonzttn 0.002km -90 12.25 868.3Mhz, SF9BW125, 4/5CR
51 2019-08-21 13:27:19 21.5°C 57.3125% 3.38V v1 52.1991 / 5.41208 4055 tonzttn 0.002km -77 11.25 867.1Mhz, SF9BW125, 4/5CR
Meetjestad #4 (De Koperhorst) 3.667km -120 -5.75 867.1Mhz, SF9BW125, 4/5CR
51 2019-08-21 13:10:18 20.9375°C 58.125% 3.38V v1 52.1991 / 5.41208 4054 tonzttn 0.002km -93 11.5 868.1Mhz, SF9BW125, 4/5CR
51 2019-08-21 12:53:16 21.5°C 59.4375% 3.38V v1 52.1991 / 5.41208 4053 tonzttn 0.002km -91 11.25 867.9Mhz, SF9BW125, 4/5CR
Meetjestad #4 (De Koperhorst) 3.667km -118 -0.75 867.9Mhz, SF9BW125, 4/5CR
51 2019-08-21 12:36:15 21.125°C 60.25% 3.38V v1 52.1991 / 5.41208 4052 tonzttn 0.002km -76 9 868.5Mhz, SF9BW125, 4/5CR
Meetjestad #4 (De Koperhorst) 3.667km -117 -5 868.5Mhz, SF9BW125, 4/5CR
51 2019-08-21 12:19:14 20.6875°C 60.125% 3.38V v1 52.1991 / 5.41208 4051 tonzttn 0.002km -85 12.25 867.7Mhz, SF9BW125, 4/5CR
Meetjestad #4 (De Koperhorst) 3.667km -117 -2 867.7Mhz, SF9BW125, 4/5CR
51 2019-08-21 12:02:13 21.8125°C 63.1875% 3.38V v1 52.1991 / 5.41208 4050 tonzttn 0.002km -87 12.5 868.3Mhz, SF9BW125, 4/5CR
51 2019-08-21 11:45:12 21.375°C 64.4375% 3.38V v1 52.1991 / 5.41208 4049 tonzttn 0.002km -81 10.25 867.5Mhz, SF9BW125, 4/5CR
Meetjestad #4 (De Koperhorst) 3.667km -114 -11.5 867.5Mhz, SF9BW125, 4/5CR
51 2019-08-21 11:28:11 20.625°C 65.25% 3.38V v1 52.1991 / 5.41208 4048 tonzttn 0.002km -93 13.25 868.1Mhz, SF9BW125, 4/5CR
51 2019-08-21 11:11:10 20.8125°C 66.9375% 3.38V v1 52.1991 / 5.41208 4047 tonzttn 0.002km -77 12 867.3Mhz, SF9BW125, 4/5CR
Meetjestad #4 (De Koperhorst) 3.667km -119 -5.25 867.3Mhz, SF9BW125, 4/5CR
eui-1dee1538af05a5a8 - -117 -11.5 867.3Mhz, SF9BW125, 4/5CR
Meetjestad #6 (La Balise) 3.213km -120 -13.25 867.3Mhz, SF9BW125, 4/5CR
51 2019-08-21 10:54:09 20.375°C 70.0625% 3.38V v1 52.1991 / 5.41208 4046 tonzttn 0.002km -79 8.75 868.5Mhz, SF9BW125, 4/5CR
Meetjestad #4 (De Koperhorst) 3.667km -112 -12 868.5Mhz, SF9BW125, 4/5CR
51 2019-08-21 10:37:08 20.3125°C 71.625% 3.38V v1 52.1991 / 5.41208 4045 tonzttn 0.002km -81 12.25 867.1Mhz, SF9BW125, 4/5CR
Meetjestad #4 (De Koperhorst) 3.667km -120 -9 867.1Mhz, SF9BW125, 4/5CR
eui-1dee1538af05a5a8 - -119 -9.5 867.1Mhz, SF9BW125, 4/5CR
51 2019-08-21 10:20:08 19.625°C 74.375% 3.38V v1 52.1991 / 5.41208 4044 tonzttn 0.002km -81 13.5 868.3Mhz, SF9BW125, 4/5CR
Meetjestad #6 (La Balise) 3.213km -119 -12.75 868.3Mhz, SF9BW125, 4/5CR
51 2019-08-21 10:03:07 18.75°C 78% 3.38V v1 52.1991 / 5.41208 4043 tonzttn 0.002km -89 11 867.9Mhz, SF9BW125, 4/5CR
Meetjestad #4 (De Koperhorst) 3.667km -117 -3.75 867.9Mhz, SF9BW125, 4/5CR
51 2019-08-21 09:46:07 18°C 79.125% 3.38V v1 52.1991 / 5.41208 4042 tonzttn 0.002km -84 11.75 868.1Mhz, SF9BW125, 4/5CR
Meetjestad #4 (De Koperhorst) 3.667km -120 -2.25 868.1Mhz, SF9BW125, 4/5CR
51 2019-08-21 09:29:08 17.125°C 82.5% 3.38V v1 52.1991 / 5.41208 4041 tonzttn 0.002km -81 11.25 867.7Mhz, SF9BW125, 4/5CR
Meetjestad #4 (De Koperhorst) 3.667km -118 -5.25 867.7Mhz, SF9BW125, 4/5CR
eui-1dee1538af05a5a8 - -120 -12.8 867.7Mhz, SF9BW125, 4/5CR
51 2019-08-21 09:12:08 15.9375°C 85.4375% 3.38V v1 52.1991 / 5.41208 4040 tonzttn 0.002km -77 8 868.5Mhz, SF9BW125, 4/5CR
Meetjestad #4 (De Koperhorst) 3.667km -117 -9.75 868.5Mhz, SF9BW125, 4/5CR
51 2019-08-21 08:55:09 14.5°C 89.9375% 3.38V v1 52.1991 / 5.41208 4039 tonzttn 0.002km -79 9.25 867.5Mhz, SF9BW125, 4/5CR
Meetjestad #4 (De Koperhorst) 3.667km -117 -10.25 867.5Mhz, SF9BW125, 4/5CR
eui-1dee1538af05a5a8 - -117 -12.5 867.5Mhz, SF9BW125, 4/5CR
51 2019-08-21 08:38:11 13.25°C 93.75% 3.38V v1 52.1991 / 5.41208 4038 tonzttn 0.002km -83 12 868.3Mhz, SF9BW125, 4/5CR
Meetjestad #4 (De Koperhorst) 3.667km -117 -6.5 868.3Mhz, SF9BW125, 4/5CR
51 2019-08-21 08:21:12 12.625°C 94.5% 3.38V v1 52.1991 / 5.41208 4037 tonzttn 0.002km -75 12 867.3Mhz, SF9BW125, 4/5CR
Meetjestad #4 (De Koperhorst) 3.667km -119 -2 867.3Mhz, SF9BW125, 4/5CR
eui-1dee1538af05a5a8 - -120 -11.8 867.3Mhz, SF9BW125, 4/5CR
51 2019-08-21 08:04:14 12.0625°C 94.6875% 3.38V v1 52.1991 / 5.41208 4036 Meetjestad #4 (De Koperhorst) 3.667km -119 -2 868.1Mhz, SF9BW125, 4/5CR
51 2019-08-21 07:47:16 11.625°C 94.75% 3.38V v1 52.1991 / 5.41208 4035 tonzttn 0.002km -79 13 867.1Mhz, SF9BW125, 4/5CR
Meetjestad #4 (De Koperhorst) 3.667km -120 -4 867.1Mhz, SF9BW125, 4/5CR
eui-1dee1538af05a5a8 - -120 -11.5 867.1Mhz, SF9BW125, 4/5CR
51 2019-08-21 07:30:18 11.375°C 95.0625% 3.38V v1 52.1991 / 5.41208 4034 tonzttn 0.002km -79 8.75 868.5Mhz, SF9BW125, 4/5CR
Meetjestad #4 (De Koperhorst) 3.667km -114 -4.5 868.5Mhz, SF9BW125, 4/5CR
51 2019-08-21 07:13:19 11.125°C 94.9375% 3.38V v1 52.1991 / 5.41208 4033 tonzttn 0.002km -89 13.25 867.9Mhz, SF9BW125, 4/5CR
Meetjestad #4 (De Koperhorst) 3.667km -119 -1.5 867.9Mhz, SF9BW125, 4/5CR
51 2019-08-21 06:57:11 11°C 94.8125% 3.38V v1 52.1991 / 5.41208 4032 tonzttn 0.002km -79 9.5 868.3Mhz, SF12BW125, 4/5CR
Meetjestad #4 (De Koperhorst) 3.667km -118 -4.5 868.3Mhz, SF12BW125, 4/5CR
Meetjestad #6 (La Balise) 3.213km -119 -14.25 868.3Mhz, SF12BW125, 4/5CR
51 2019-08-21 06:39:29 10.875°C 94.6875% 3.38V v1 52.1992 / 5.41214 4031 tonzttn 0.014km -81 12.5 867.7Mhz, SF9BW125, 4/5CR
Meetjestad #4 (De Koperhorst) 3.679km -119 -1 867.7Mhz, SF9BW125, 4/5CR
eui-1dee1538af05a5a8 - -119 -12.2 867.7Mhz, SF9BW125, 4/5CR
51 2019-08-21 06:22:31 10.9375°C 94.4375% 3.38V v1 52.1992 / 5.41214 4030 tonzttn 0.014km -91 13.25 868.1Mhz, SF9BW125, 4/5CR
Meetjestad #4 (De Koperhorst) 3.679km -114 0 868.1Mhz, SF9BW125, 4/5CR
51 2019-08-21 06:05:33 10.9375°C 94% 3.38V v1 52.1992 / 5.41214 4029 tonzttn 0.014km -75 9.5 867.5Mhz, SF9BW125, 4/5CR
Meetjestad #4 (De Koperhorst) 3.679km -119 -3 867.5Mhz, SF9BW125, 4/5CR
51 2019-08-21 05:48:35 11.0625°C 94.0625% 3.38V v1 52.1992 / 5.41214 4028 tonzttn 0.014km -83 9.25 868.5Mhz, SF9BW125, 4/5CR
Meetjestad #4 (De Koperhorst) 3.679km -117 -9.25 868.5Mhz, SF9BW125, 4/5CR
Meetjestad #6 (La Balise) 3.215km -119 -14.25 868.5Mhz, SF9BW125, 4/5CR
51 2019-08-21 05:31:37 11.125°C 93.875% 3.38V v1 52.1992 / 5.41214 4027 tonzttn 0.014km -77 13.5 867.3Mhz, SF9BW125, 4/5CR
Meetjestad #4 (De Koperhorst) 3.679km -117 -3.25 867.3Mhz, SF9BW125, 4/5CR
eui-1dee1538af05a5a8 - -117 -11.8 867.3Mhz, SF9BW125, 4/5CR
51 2019-08-21 05:14:39 11.125°C 93.9375% 3.38V v1 52.1992 / 5.41214 4026 tonzttn 0.014km -85 12.75 868.3Mhz, SF9BW125, 4/5CR
51 2019-08-21 04:57:41 11.1875°C 93.625% 3.38V v1 52.1992 / 5.41214 4025 tonzttn 0.014km -77 13.75 867.1Mhz, SF9BW125, 4/5CR
Meetjestad #4 (De Koperhorst) 3.679km -120 -3 867.1Mhz, SF9BW125, 4/5CR
eui-1dee1538af05a5a8 - -121 -13.2 867.1Mhz, SF9BW125, 4/5CR
51 2019-08-21 04:40:44 11.25°C 93.125% 3.38V v1 52.1992 / 5.41214 4024 tonzttn 0.014km -97 11.5 868.1Mhz, SF9BW125, 4/5CR
Meetjestad #4 (De Koperhorst) 3.679km -120 0.25 868.1Mhz, SF9BW125, 4/5CR
51 2019-08-21 04:23:44 11.25°C 92.375% 3.38V v1 52.1992 / 5.41214 4023 tonzttn 0.014km -85 12.25 867.9Mhz, SF9BW125, 4/5CR
Meetjestad #6 (La Balise) 3.215km -120 -14.25 867.9Mhz, SF9BW125, 4/5CR
51 2019-08-21 04:06:46 11.375°C 92.375% 3.38V v1 52.1992 / 5.41214 4022 tonzttn 0.014km -87 9.5 868.5Mhz, SF9BW125, 4/5CR
Meetjestad #4 (De Koperhorst) 3.679km -113 -3.25 868.5Mhz, SF9BW125, 4/5CR
51 2019-08-21 03:49:48 11.5°C 92.375% 3.38V v1 52.1992 / 5.41214 4021 tonzttn 0.014km -81 12.5 867.7Mhz, SF9BW125, 4/5CR
Meetjestad #4 (De Koperhorst) 3.679km -119 -0.5 867.7Mhz, SF9BW125, 4/5CR
51 2019-08-21 03:32:50 11.625°C 92.625% 3.38V v1 52.1992 / 5.41214 4020 tonzttn 0.014km -85 11 868.3Mhz, SF9BW125, 4/5CR
Meetjestad #4 (De Koperhorst) 3.679km -117 -3.75 868.3Mhz, SF9BW125, 4/5CR
51 2019-08-21 03:15:52 11.6875°C 92.125% 3.38V v1 52.1992 / 5.41214 4019 tonzttn 0.014km -77 9 867.5Mhz, SF9BW125, 4/5CR
Meetjestad #4 (De Koperhorst) 3.679km -119 -3 867.5Mhz, SF9BW125, 4/5CR
51 2019-08-21 02:58:53 11.75°C 91.5625% 3.38V v1 52.1992 / 5.41214 4018 tonzttn 0.014km -93 13 868.1Mhz, SF9BW125, 4/5CR
Meetjestad #4 (De Koperhorst) 3.679km -120 0 868.1Mhz, SF9BW125, 4/5CR
51 2019-08-21 02:41:55 11.875°C 91.25% 3.38V v1 52.1992 / 5.41214 4017 tonzttn 0.014km -77 13.5 867.3Mhz, SF9BW125, 4/5CR
Meetjestad #4 (De Koperhorst) 3.679km -120 -1 867.3Mhz, SF9BW125, 4/5CR
eui-1dee1538af05a5a8 - -118 -12.5 867.3Mhz, SF9BW125, 4/5CR
51 2019-08-21 02:24:57 12.0625°C 91.1875% 3.38V v1 52.1992 / 5.41214 4016 tonzttn 0.014km -79 9.75 868.5Mhz, SF9BW125, 4/5CR
Meetjestad #4 (De Koperhorst) 3.679km -112 -4.25 868.5Mhz, SF9BW125, 4/5CR
51 2019-08-21 02:07:59 12.125°C 90.875% 3.38V v1 52.1992 / 5.41214 4015 tonzttn 0.014km -75 13.5 867.1Mhz, SF9BW125, 4/5CR
Meetjestad #4 (De Koperhorst) 3.679km -120 -1.25 867.1Mhz, SF9BW125, 4/5CR
51 2019-08-21 01:51:00 12.3125°C 91.0625% 3.38V v1 52.1992 / 5.41214 4014 tonzttn 0.014km -91 13.5 868.3Mhz, SF9BW125, 4/5CR
51 2019-08-21 01:34:02 12.4375°C 90.5% 3.38V v1 52.1992 / 5.41214 4013 tonzttn 0.014km -87 14.25 867.9Mhz, SF9BW125, 4/5CR
Meetjestad #4 (De Koperhorst) 3.679km -117 -1 867.9Mhz, SF9BW125, 4/5CR
51 2019-08-21 01:17:03 12.625°C 90.375% 3.38V v1 52.1992 / 5.41214 4012 tonzttn 0.014km -99 11.25 868.1Mhz, SF9BW125, 4/5CR
Meetjestad #4 (De Koperhorst) 3.679km -119 -1 868.1Mhz, SF9BW125, 4/5CR
51 2019-08-21 01:00:05 12.6875°C 89.625% 3.38V v1 52.1992 / 5.41214 4011 tonzttn 0.014km -85 13.25 867.7Mhz, SF9BW125, 4/5CR
Meetjestad #4 (De Koperhorst) 3.679km -119 -3 867.7Mhz, SF9BW125, 4/5CR
51 2019-08-21 00:43:06 12.875°C 89.25% 3.38V v1 52.1992 / 5.41214 4010 tonzttn 0.014km -77 9.5 868.5Mhz, SF9BW125, 4/5CR
Meetjestad #4 (De Koperhorst) 3.679km -114 -5 868.5Mhz, SF9BW125, 4/5CR
51 2019-08-21 00:26:08 12.9375°C 89.375% 3.38V v1 52.1992 / 5.41214 4009 tonzttn 0.014km -78 8.75 867.5Mhz, SF9BW125, 4/5CR
Meetjestad #4 (De Koperhorst) 3.679km -112 -5 867.5Mhz, SF9BW125, 4/5CR
51 2019-08-21 00:09:09 13.0625°C 89.1875% 3.38V v1 52.1992 / 5.41214 4008 tonzttn 0.014km -89 13.75 868.3Mhz, SF9BW125, 4/5CR
51 2019-08-20 23:52:10 13.25°C 88.75% 3.38V v1 52.1992 / 5.41214 4007 tonzttn 0.014km -73 11.5 867.3Mhz, SF9BW125, 4/5CR
Meetjestad #4 (De Koperhorst) 3.679km -119 -1 867.3Mhz, SF9BW125, 4/5CR
eui-1dee1538af05a5a8 - -118 -12.2 867.3Mhz, SF9BW125, 4/5CR
51 2019-08-20 23:35:12 13.4375°C 87.9375% 3.38V v1 52.1992 / 5.41214 4006 tonzttn 0.014km -91 13.25 868.1Mhz, SF9BW125, 4/5CR
Meetjestad #4 (De Koperhorst) 3.679km -120 -4 868.1Mhz, SF9BW125, 4/5CR
51 2019-08-20 23:18:13 13.625°C 87.25% 3.38V v1 52.1992 / 5.41214 4005 tonzttn 0.014km -77 13 867.1Mhz, SF9BW125, 4/5CR
Meetjestad #4 (De Koperhorst) 3.679km -119 -1.25 867.1Mhz, SF9BW125, 4/5CR
eui-1dee1538af05a5a8 - -121 -11.5 867.1Mhz, SF9BW125, 4/5CR
51 2019-08-20 23:01:14 13.875°C 85.9375% 3.38V v1 52.1992 / 5.41214 4004 tonzttn 0.014km -81 9 868.5Mhz, SF9BW125, 4/5CR
Meetjestad #4 (De Koperhorst) 3.679km -115 -6.75 868.5Mhz, SF9BW125, 4/5CR
51 2019-08-20 22:44:15 14.125°C 84.875% 3.38V v1 52.1992 / 5.41214 4003 tonzttn 0.014km -95 11 867.9Mhz, SF9BW125, 4/5CR
Meetjestad #4 (De Koperhorst) 3.679km -120 -2 867.9Mhz, SF9BW125, 4/5CR
51 2019-08-20 22:27:16 14.5°C 82.625% 3.38V v1 52.1992 / 5.41214 4002 Meetjestad #4 (De Koperhorst) 3.679km -117 -6.25 868.3Mhz, SF9BW125, 4/5CR
eui-1dee1538af05a5a8 - -119 -13 868.3Mhz, SF9BW125, 4/5CR
51 2019-08-20 22:10:17 14.6875°C 83.5625% 3.38V v1 52.1992 / 5.41214 4001 tonzttn 0.014km -85 13 867.7Mhz, SF9BW125, 4/5CR
Meetjestad #4 (De Koperhorst) 3.679km -117 0.75 867.7Mhz, SF9BW125, 4/5CR
eui-1dee1538af05a5a8 - -118 -14.5 867.7Mhz, SF9BW125, 4/5CR
51 2019-08-20 21:53:18 15°C 83.0625% 3.38V v1 52.1992 / 5.41214 4000 tonzttn 0.014km -103 10.75 868.1Mhz, SF9BW125, 4/5CR
Meetjestad #4 (De Koperhorst) 3.679km -120 -0.75 868.1Mhz, SF9BW125, 4/5CR
Meetjestad #6 (La Balise) 3.215km -119 -14 868.1Mhz, SF9BW125, 4/5CR
51 2019-08-20 21:36:18 15.4375°C 78.625% 3.38V v1 52.1992 / 5.41214 3999 tonzttn 0.014km -76 9.25 867.5Mhz, SF9BW125, 4/5CR
Meetjestad #4 (De Koperhorst) 3.679km -117 -5.25 867.5Mhz, SF9BW125, 4/5CR
eui-b827ebfffe710b30 - -108 -14.2 867.5Mhz, SF9BW125, 4/5CR
51 2019-08-20 21:19:19 15.875°C 75.6875% 3.38V v1 52.1992 / 5.41214 3998 tonzttn 0.014km -81 9.25 868.5Mhz, SF9BW125, 4/5CR
Meetjestad #4 (De Koperhorst) 3.679km -115 -12 868.5Mhz, SF9BW125, 4/5CR
51 2019-08-20 21:02:19 16.375°C 74.0625% 3.38V v1 52.1992 / 5.41214 3997 tonzttn 0.014km -78 11.25 867.3Mhz, SF9BW125, 4/5CR
Meetjestad #4 (De Koperhorst) 3.679km -120 -7 867.3Mhz, SF9BW125, 4/5CR
Meetjestad #6 (La Balise) 3.215km -120 -12.75 867.3Mhz, SF9BW125, 4/5CR
51 2019-08-20 20:45:20 16.875°C 70.3125% 3.38V v1 52.1992 / 5.41214 3996 tonzttn 0.014km -85 12.5 868.3Mhz, SF9BW125, 4/5CR
51 2019-08-20 20:28:20 17.3125°C 68.875% 3.38V v1 52.1992 / 5.41214 3995 tonzttn 0.014km -79 13 867.1Mhz, SF9BW125, 4/5CR
Meetjestad #4 (De Koperhorst) 3.679km -119 -8.25 867.1Mhz, SF9BW125, 4/5CR
eui-1dee1538af05a5a8 - -119 -9.5 867.1Mhz, SF9BW125, 4/5CR
51 2019-08-20 20:11:20 17.75°C 66.875% 3.38V v1 52.1992 / 5.41214 3994 tonzttn 0.014km -95 12.5 868.1Mhz, SF9BW125, 4/5CR
Meetjestad #4 (De Koperhorst) 3.679km -119 -2.25 868.1Mhz, SF9BW125, 4/5CR
Meetjestad #6 (La Balise) 3.215km -120 -12.75 868.1Mhz, SF9BW125, 4/5CR
51 2019-08-20 19:54:20 18.1875°C 65.8125% 3.38V v1 52.1992 / 5.41214 3993 tonzttn 0.014km -87 13.5 867.9Mhz, SF9BW125, 4/5CR
Meetjestad #4 (De Koperhorst) 3.679km -119 0.25 867.9Mhz, SF9BW125, 4/5CR
51 2019-08-20 19:37:19 18.625°C 65.5% 3.38V v1 52.1992 / 5.41214 3992 tonzttn 0.014km -79 9.25 868.5Mhz, SF9BW125, 4/5CR
Meetjestad #4 (De Koperhorst) 3.679km -117 -7.5 868.5Mhz, SF9BW125, 4/5CR
Meetjestad #6 (La Balise) 3.215km -117 -13.75 868.5Mhz, SF9BW125, 4/5CR
51 2019-08-20 19:20:19 18.9375°C 64.0625% 3.38V v1 52.1992 / 5.41214 3991 tonzttn 0.014km -81 13 867.7Mhz, SF9BW125, 4/5CR
51 2019-08-20 19:03:18 19.1875°C 65.1875% 3.38V v1 52.1992 / 5.41214 3990 tonzttn 0.014km -85 12.75 868.3Mhz, SF9BW125, 4/5CR
51 2019-08-20 18:46:18 19.5°C 63.9375% 3.38V v1 52.1992 / 5.41214 3989 tonzttn 0.014km -79 9.5 867.5Mhz, SF9BW125, 4/5CR
Meetjestad #4 (De Koperhorst) 3.679km -114 -4.25 867.5Mhz, SF9BW125, 4/5CR
51 2019-08-20 18:29:17 19.6875°C 63.25% 3.38V v1 52.1992 / 5.41214 3988 tonzttn 0.014km -87 12.75 868.1Mhz, SF9BW125, 4/5CR
Meetjestad #4 (De Koperhorst) 3.679km -121 -6 868.1Mhz, SF9BW125, 4/5CR
51 2019-08-20 18:12:19 19.9375°C 61.9375% 3.38V v1 52.1992 / 5.41214 3987 tonzttn 0.014km -75 11.75 867.3Mhz, SF9BW125, 4/5CR
51 2019-08-20 17:55:16 19.9375°C 62.5625% 3.38V v1 52.1992 / 5.41214 3986 tonzttn 0.014km -78 8.75 868.5Mhz, SF9BW125, 4/5CR
51 2019-08-20 17:38:15 20°C 63.375% 3.38V v1 52.1992 / 5.41214 3985 tonzttn 0.014km -77 14.25 867.1Mhz, SF9BW125, 4/5CR
Meetjestad #4 (De Koperhorst) 3.679km -118 -5.75 867.1Mhz, SF9BW125, 4/5CR
51 2019-08-20 17:21:14 20.125°C 63.625% 3.38V v1 52.1992 / 5.41214 3984 tonzttn 0.014km -89 13.75 868.3Mhz, SF9BW125, 4/5CR
51 2019-08-20 17:04:14 20.375°C 64% 3.38V v1 52.1992 / 5.41214 3983 tonzttn 0.014km -85 13 867.9Mhz, SF9BW125, 4/5CR
51 2019-08-20 16:47:13 20.375°C 63.4375% 3.38V v1 52.1992 / 5.41214 3982 tonzttn 0.014km -95 11.25 868.1Mhz, SF9BW125, 4/5CR
Meetjestad #4 (De Koperhorst) 3.679km -120 -2.25 868.1Mhz, SF9BW125, 4/5CR
51 2019-08-20 16:30:12 20.125°C 63.5% 3.38V v1 52.1992 / 5.41214 3981 tonzttn 0.014km -83 12.75 867.7Mhz, SF9BW125, 4/5CR
Meetjestad #4 (De Koperhorst) 3.679km -118 -5.25 867.7Mhz, SF9BW125, 4/5CR
eui-1dee1538af05a5a8 - -117 -11 867.7Mhz, SF9BW125, 4/5CR
51 2019-08-20 16:13:11 19.8125°C 65.8125% 3.38V v1 52.1992 / 5.41214 3980 tonzttn 0.014km -79 8.75 868.5Mhz, SF9BW125, 4/5CR
Meetjestad #4 (De Koperhorst) 3.679km -106 -13.25 868.5Mhz, SF9BW125, 4/5CR
51 2019-08-20 15:56:10 19.5625°C 66.125% 3.38V v1 52.1992 / 5.41214 3979 tonzttn 0.014km -76 9 867.5Mhz, SF9BW125, 4/5CR
Meetjestad #4 (De Koperhorst) 3.679km -111 -7.5 867.5Mhz, SF9BW125, 4/5CR
51 2019-08-20 15:39:10 19.5°C 66.25% 3.38V v1 52.1992 / 5.41214 3978 tonzttn 0.014km -81 11.75 868.3Mhz, SF9BW125, 4/5CR
Meetjestad #4 (De Koperhorst) 3.679km -109 -8.5 868.3Mhz, SF9BW125, 4/5CR
51 2019-08-20 15:22:09 20.25°C 63.5625% 3.38V v1 52.1992 / 5.41214 3977 tonzttn 0.014km -75 11.75 867.3Mhz, SF9BW125, 4/5CR
Meetjestad #4 (De Koperhorst) 3.679km -119 -3 867.3Mhz, SF9BW125, 4/5CR
eui-1dee1538af05a5a8 - -118 -11.5 867.3Mhz, SF9BW125, 4/5CR
51 2019-08-20 15:05:08 19.8125°C 64.8125% 3.38V v1 52.1992 / 5.41214 3976 tonzttn 0.014km -81 11.5 868.1Mhz, SF9BW125, 4/5CR
Meetjestad #4 (De Koperhorst) 3.679km -120 -8.5 868.1Mhz, SF9BW125, 4/5CR
eui-1dee1538af05a5a8 - -121 -13.2 868.1Mhz, SF9BW125, 4/5CR
51 2019-08-20 14:48:08 20°C 62.125% 3.38V v1 52.1992 / 5.41214 3975 tonzttn 0.014km -77 13.5 867.1Mhz, SF9BW125, 4/5CR
Meetjestad #4 (De Koperhorst) 3.679km -119 -5.5 867.1Mhz, SF9BW125, 4/5CR
eui-1dee1538af05a5a8 - -121 -12.8 867.1Mhz, SF9BW125, 4/5CR
51 2019-08-20 14:31:07 19.875°C 64.375% 3.38V v1 52.1992 / 5.41214 3974 tonzttn 0.014km -84 8.75 868.5Mhz, SF9BW125, 4/5CR
Meetjestad #4 (De Koperhorst) 3.679km -117 -7.5 868.5Mhz, SF9BW125, 4/5CR
51 2019-08-20 14:14:07 19.0625°C 67.375% 3.38V v1 52.1992 / 5.41214 3973 tonzttn 0.014km -80 11.5 867.9Mhz, SF9BW125, 4/5CR
Meetjestad #4 (De Koperhorst) 3.679km -118 -2.5 867.9Mhz, SF9BW125, 4/5CR
51 2019-08-20 13:57:06 18.6875°C 66.4375% 3.38V v1 52.1992 / 5.41214 3972 tonzttn 0.014km -99 11.5 868.3Mhz, SF9BW125, 4/5CR
51 2019-08-20 13:40:06 18.875°C 65.25% 3.38V v1 52.1992 / 5.41214 3971 tonzttn 0.014km -79 12.5 867.7Mhz, SF9BW125, 4/5CR
Meetjestad #4 (De Koperhorst) 3.679km -119 -8.5 867.7Mhz, SF9BW125, 4/5CR
51 2019-08-20 13:23:06 19°C 67% 3.38V v1 52.1992 / 5.41214 3970 tonzttn 0.014km -87 12.25 868.1Mhz, SF9BW125, 4/5CR
Meetjestad #4 (De Koperhorst) 3.679km -118 -5.25 868.1Mhz, SF9BW125, 4/5CR
Meetjestad #6 (La Balise) 3.215km -121 -11.75 868.1Mhz, SF9BW125, 4/5CR
51 2019-08-20 13:06:05 19.6875°C 64.875% 3.38V v1 52.1992 / 5.41214 3969 tonzttn 0.014km -75 9 867.5Mhz, SF9BW125, 4/5CR
51 2019-08-20 12:49:05 20.25°C 61% 3.38V v1 52.1992 / 5.41214 3968 tonzttn 0.014km -79 9 868.5Mhz, SF9BW125, 4/5CR
Meetjestad #6 (La Balise) 3.215km -119 -11.75 868.5Mhz, SF9BW125, 4/5CR
51 2019-08-20 12:32:04 20.875°C 63.125% 3.38V v1 52.1992 / 5.41214 3967 tonzttn 0.014km -73 12.25 867.3Mhz, SF9BW125, 4/5CR
51 2019-08-20 12:15:03 20.6875°C 63.875% 3.38V v1 52.1992 / 5.41214 3966 tonzttn 0.014km -93 11.75 868.3Mhz, SF9BW125, 4/5CR
Meetjestad #4 (De Koperhorst) 3.679km -117 -12.5 868.3Mhz, SF9BW125, 4/5CR

Message count: 200

Node count: 1

Messages per node

Number of messages in list aboveNodes
20051

Statistics per gateway

GatewayNumber of messagesNumber of nodesNodes
tonzttn (filter)195151 (0.014km)
Meetjestad #4 (De Koperhorst) (filter)148151 (3.679km)
eui-1dee1538af05a5a8 (filter)34151
Meetjestad #6 (La Balise) (filter)29151 (3.215km)
Meetjestad #1 (De WAR) (filter)1151 (4.714km)
eui-b827ebfffe710b30 (filter)1151

Filter by dataset